createdAt,value
2022-11-19T00:01:08.078Z,12.10
2022-11-19T00:03:35.666Z,14.20
2022-11-19T00:06:05.211Z,14.80
2022-11-19T00:08:31.849Z,14.95
2022-11-19T00:11:12.496Z,12.70
2022-11-19T00:13:41.456Z,11.95
2022-11-19T00:16:11.631Z,14.75
2022-11-19T00:18:38.455Z,18.35
2022-11-19T00:21:10.685Z,16.02
2022-11-19T00:23:37.396Z,14.38
2022-11-19T00:26:06.335Z,17.27
2022-11-19T00:28:33.249Z,17.08
2022-11-19T00:31:10.861Z,17.00
2022-11-19T00:33:38.546Z,15.32
2022-11-19T00:36:07.519Z,14.93
2022-11-19T00:38:34.724Z,16.58
2022-11-19T00:41:01.312Z,16.73
2022-11-19T00:43:46.821Z,16.88
2022-11-19T00:46:22.224Z,15.63
2022-11-19T00:48:50.222Z,16.85
2022-11-19T00:51:18.636Z,17.60
2022-11-19T00:53:45.326Z,16.42
2022-11-19T00:56:14.129Z,15.77
2022-11-19T00:58:41.646Z,19.63
2022-11-19T01:01:10.062Z,21.35
2022-11-19T01:03:37.523Z,21.17
2022-11-19T01:06:05.231Z,20.17
2022-11-19T01:08:31.905Z,20.35
2022-11-19T01:11:12.895Z,14.68
2022-11-19T01:13:39.480Z,18.77
2022-11-19T01:16:14.780Z,19.42
2022-11-19T01:21:11.087Z,20.25
2022-11-19T01:23:42.094Z,17.05
2022-11-19T01:26:09.866Z,21.95
2022-11-19T01:28:36.670Z,20.23
2022-11-19T01:31:21.208Z,26.38
2022-11-19T01:33:48.753Z,23.00
2022-11-19T01:36:27.965Z,26.45
2022-11-19T01:38:55.154Z,20.95
2022-11-19T01:41:32.392Z,26.00
2022-11-19T01:44:01.001Z,27.27
2022-11-19T01:46:33.084Z,21.08
2022-11-19T01:49:16.937Z,20.40
2022-11-19T01:51:58.342Z,26.27
2022-11-19T01:54:34.259Z,25.25
2022-11-19T01:57:06.281Z,24.88
2022-11-19T01:59:32.907Z,30.15
2022-11-19T02:01:59.863Z,28.02
2022-11-19T02:04:27.511Z,35.70
2022-11-19T02:06:55.077Z,28.15
2022-11-19T02:09:22.192Z,30.17
2022-11-19T02:12:23.404Z,31.65
2022-11-19T02:15:35.393Z,32.00
2022-11-19T02:18:29.969Z,26.02
2022-11-19T02:21:17.265Z,26.02
2022-11-19T02:23:57.483Z,32.63
2022-11-19T02:26:56.078Z,27.45
2022-11-19T02:29:33.242Z,33.80
2022-11-19T02:32:14.708Z,32.83
2022-11-19T02:34:51.283Z,32.03
2022-11-19T02:37:30.390Z,31.67
2022-11-19T02:40:05.028Z,32.45
2022-11-19T02:42:37.080Z,35.83
2022-11-19T02:45:10.168Z,32.05
2022-11-19T02:47:59.770Z,35.00
2022-11-19T02:50:36.467Z,31.75
2022-11-19T02:53:04.477Z,34.10
2022-11-19T02:55:31.967Z,33.67
2022-11-19T02:58:09.292Z,35.08
2022-11-19T03:01:07.798Z,36.28
2022-11-19T03:03:53.947Z,30.52
2022-11-19T03:06:28.781Z,34.30
2022-11-19T03:08:55.290Z,33.50
2022-11-19T03:11:26.090Z,39.42
2022-11-19T03:14:16.949Z,35.85
2022-11-19T03:16:58.439Z,39.28
2022-11-19T03:19:44.834Z,37.05
2022-11-19T03:22:32.757Z,36.90
2022-11-19T03:25:05.607Z,38.67
2022-11-19T03:27:45.356Z,39.80
2022-11-19T03:30:13.840Z,38.85
2022-11-19T03:32:48.219Z,38.50
2022-11-19T03:35:19.744Z,37.40
2022-11-19T03:37:50.920Z,35.00
2022-11-19T03:40:19.162Z,33.28
2022-11-19T03:42:50.984Z,40.75
2022-11-19T03:45:22.252Z,30.77
2022-11-19T03:47:50.459Z,39.25
2022-11-19T03:50:33.494Z,44.60
2022-11-19T03:53:04.037Z,40.80
2022-11-19T03:55:39.991Z,42.05
2022-11-19T03:58:09.492Z,44.80
2022-11-19T04:00:36.388Z,43.72
2022-11-19T04:03:04.463Z,40.22
2022-11-19T04:05:31.034Z,39.33
2022-11-19T04:07:57.519Z,46.58
2022-11-19T04:10:24.387Z,28.45
2022-11-19T04:12:50.941Z,44.70
2022-11-19T04:15:17.379Z,41.05
2022-11-19T04:17:43.899Z,41.40
2022-11-19T04:20:10.693Z,33.53
2022-11-19T04:22:37.241Z,43.22
2022-11-19T04:25:03.993Z,44.63
2022-11-19T04:27:30.426Z,44.88
2022-11-19T04:29:56.858Z,41.63
2022-11-19T04:32:23.374Z,43.92
2022-11-19T04:34:49.817Z,47.80
2022-11-19T04:37:16.310Z,43.30
2022-11-19T04:39:42.781Z,43.17
2022-11-19T04:42:09.242Z,40.38
2022-11-19T04:44:35.733Z,44.28
2022-11-19T04:47:02.261Z,45.03
2022-11-19T04:49:28.721Z,38.47
2022-11-19T04:51:55.227Z,43.95
2022-11-19T04:54:21.745Z,37.78
2022-11-19T04:56:48.230Z,45.53
2022-11-19T04:59:15.295Z,43.92
2022-11-19T05:01:41.838Z,34.88
2022-11-19T05:04:09.733Z,43.97
2022-11-19T05:06:36.205Z,35.30
2022-11-19T05:09:02.741Z,41.03
2022-11-19T05:11:29.202Z,44.00
2022-11-19T05:13:55.694Z,48.40
2022-11-19T05:16:22.203Z,45.20
2022-11-19T05:18:48.695Z,30.15
2022-11-19T05:21:15.151Z,41.38
2022-11-19T05:23:41.568Z,51.67
2022-11-19T05:26:08.036Z,36.72
2022-11-19T05:28:38.869Z,47.80
2022-11-19T05:31:06.279Z,47.38
2022-11-19T05:33:34.240Z,42.33
2022-11-19T05:36:01.587Z,46.67
2022-11-19T05:38:28.037Z,42.47
2022-11-19T05:40:54.499Z,39.97
2022-11-19T05:43:20.932Z,50.30
2022-11-19T05:45:47.390Z,46.72
2022-11-19T05:48:13.838Z,55.67
2022-11-19T05:50:43.301Z,52.97
2022-11-19T05:53:10.345Z,31.23
2022-11-19T05:55:36.765Z,47.70
2022-11-19T05:58:03.231Z,41.30
2022-11-19T06:00:29.696Z,40.13
2022-11-19T06:02:56.369Z,42.83
2022-11-19T06:05:22.845Z,47.85
2022-11-19T06:07:49.447Z,37.90
2022-11-19T06:10:15.981Z,43.30
2022-11-19T06:12:45.797Z,46.65
2022-11-19T06:15:13.267Z,46.45
2022-11-19T06:17:39.807Z,49.10
2022-11-19T06:20:08.811Z,42.10
2022-11-19T06:22:35.596Z,33.97
2022-11-19T06:25:02.485Z,42.50
2022-11-19T06:27:28.936Z,44.50
2022-11-19T06:29:56.426Z,45.30
2022-11-19T06:32:23.518Z,47.08
2022-11-19T06:34:50.011Z,44.05
2022-11-19T06:37:16.574Z,40.45
2022-11-19T06:39:43.047Z,38.15
2022-11-19T06:42:28.203Z,50.20
2022-11-19T06:44:54.659Z,46.17
2022-11-19T06:47:21.138Z,45.30
2022-11-19T06:49:47.576Z,38.30
2022-11-19T06:52:14.044Z,44.10
2022-11-19T06:54:43.338Z,41.55
2022-11-19T06:57:10.249Z,37.15
2022-11-19T06:59:38.927Z,36.58
2022-11-19T07:02:06.150Z,38.80
2022-11-19T07:04:32.777Z,39.15
2022-11-19T07:06:59.314Z,30.15
2022-11-19T07:09:25.835Z,36.88
2022-11-19T07:11:52.587Z,41.28
2022-11-19T07:14:19.051Z,26.98
2022-11-19T07:16:45.506Z,45.28
2022-11-19T07:19:12.229Z,43.72
2022-11-19T07:21:39.072Z,42.95
2022-11-19T07:24:09.451Z,42.63
2022-11-19T07:26:36.867Z,41.75
2022-11-19T07:29:07.805Z,38.40
2022-11-19T07:31:34.730Z,41.47
2022-11-19T07:34:01.265Z,35.05
2022-11-19T07:36:27.844Z,44.53
2022-11-19T07:38:54.313Z,41.00
2022-11-19T07:41:39.250Z,39.97
2022-11-19T07:44:05.985Z,33.78
2022-11-19T07:46:32.509Z,33.75
2022-11-19T07:48:59.398Z,39.85
2022-11-19T07:51:26.497Z,31.58
2022-11-19T07:53:54.737Z,36.63
2022-11-19T07:56:21.227Z,41.08
2022-11-19T07:58:47.678Z,32.60
2022-11-19T08:01:22.582Z,29.85
2022-11-19T08:03:56.081Z,30.70
2022-11-19T08:06:25.710Z,37.63
2022-11-19T08:08:52.534Z,33.20
2022-11-19T08:11:19.389Z,19.27
2022-11-19T08:13:45.978Z,22.63
2022-11-19T08:16:34.741Z,36.35
2022-11-19T08:19:02.700Z,24.90
2022-11-19T08:21:29.117Z,34.67
2022-11-19T08:23:55.946Z,30.30
2022-11-19T08:26:22.796Z,29.13
2022-11-19T08:28:49.269Z,29.65
2022-11-19T08:31:15.758Z,29.92
2022-11-19T08:33:42.224Z,33.38
2022-11-19T08:36:08.733Z,29.08
2022-11-19T08:38:38.649Z,18.90
2022-11-19T08:41:24.352Z,31.33
2022-11-19T08:43:50.818Z,28.13
2022-11-19T08:46:17.302Z,31.33
2022-11-19T08:48:43.855Z,26.13
2022-11-19T08:51:10.558Z,28.63
2022-11-19T08:53:37.144Z,28.73
2022-11-19T08:56:03.693Z,25.83
2022-11-19T08:58:30.168Z,26.17
2022-11-19T09:00:56.676Z,28.45
2022-11-19T09:03:23.289Z,30.50
2022-11-19T09:05:49.846Z,20.83
2022-11-19T09:08:16.313Z,25.85
2022-11-19T09:10:42.804Z,24.98
2022-11-19T09:13:09.300Z,24.90
2022-11-19T09:15:35.831Z,28.55
2022-11-19T09:18:02.698Z,25.58
2022-11-19T09:20:29.669Z,28.30
2022-11-19T09:22:56.157Z,25.58
2022-11-19T09:25:22.728Z,28.27
2022-11-19T09:27:49.203Z,28.88
2022-11-19T09:30:15.809Z,29.73
2022-11-19T09:32:42.282Z,27.50
2022-11-19T09:35:08.855Z,22.98
2022-11-19T09:37:36.135Z,30.00
2022-11-19T09:40:02.677Z,26.48
2022-11-19T09:42:47.107Z,25.02
2022-11-19T09:45:33.196Z,28.88
2022-11-19T09:48:06.294Z,25.17
2022-11-19T09:50:52.950Z,28.88
2022-11-19T09:53:22.599Z,21.55
2022-11-19T09:55:52.564Z,26.38
2022-11-19T09:58:27.168Z,25.63
2022-11-19T10:00:53.743Z,23.65
2022-11-19T10:03:23.143Z,26.92
2022-11-19T10:06:19.399Z,29.88
2022-11-19T10:08:57.772Z,27.67
2022-11-19T10:11:43.026Z,27.33
2022-11-19T10:14:31.138Z,21.98
2022-11-19T10:17:13.695Z,20.40
2022-11-19T10:19:54.115Z,22.60
2022-11-19T10:22:57.556Z,28.27
2022-11-19T10:25:29.338Z,24.55
2022-11-19T10:28:08.204Z,24.90
2022-11-19T10:30:35.224Z,26.90
2022-11-19T10:33:06.272Z,27.63
2022-11-19T10:35:39.974Z,29.10
2022-11-19T10:38:16.525Z,25.55
2022-11-19T10:40:48.618Z,25.85
2022-11-19T10:43:48.168Z,20.23
2022-11-19T10:46:22.353Z,24.35
2022-11-19T10:48:59.019Z,24.08
2022-11-19T10:51:29.641Z,20.33
2022-11-19T10:53:57.255Z,23.75
2022-11-19T10:56:38.995Z,22.48
2022-11-19T10:59:12.576Z,20.35
2022-11-19T11:01:42.212Z,19.85
2022-11-19T11:04:17.155Z,20.90
2022-11-19T11:07:00.285Z,20.90
2022-11-19T11:09:37.023Z,21.17
2022-11-19T11:12:43.688Z,20.25
2022-11-19T11:15:15.583Z,18.88
2022-11-19T11:17:43.044Z,22.63
2022-11-19T11:20:18.304Z,18.33
2022-11-19T11:22:48.386Z,20.13
2022-11-19T11:25:32.964Z,19.13
2022-11-19T11:28:12.654Z,17.52
2022-11-19T11:31:00.014Z,19.38
2022-11-19T11:33:26.419Z,18.13
2022-11-19T11:35:56.130Z,20.88
2022-11-19T11:38:25.234Z,17.88
2022-11-19T11:44:02.597Z,19.23
2022-11-19T11:46:51.773Z,18.70
2022-11-19T11:49:24.407Z,17.73
2022-11-19T11:52:09.633Z,18.52
2022-11-19T11:54:37.891Z,19.58
2022-11-19T11:57:24.250Z,18.60
2022-11-19T11:59:50.739Z,19.27
2022-11-19T12:02:33.031Z,18.63
2022-11-19T12:05:16.762Z,19.23
2022-11-19T12:08:00.227Z,17.17
2022-11-19T12:10:52.154Z,20.33
2022-11-19T12:13:50.248Z,16.38
2022-11-19T12:16:35.621Z,19.63
2022-11-19T12:19:29.507Z,18.90
2022-11-19T12:22:05.111Z,19.13
2022-11-19T12:24:53.533Z,17.83
2022-11-19T12:27:36.914Z,18.20
2022-11-19T12:30:18.218Z,18.70
2022-11-19T12:33:10.750Z,19.08
2022-11-19T12:36:08.236Z,21.00
2022-11-19T12:38:52.547Z,17.38
2022-11-19T12:41:36.900Z,17.50
2022-11-19T12:44:30.856Z,19.55
2022-11-19T12:47:04.913Z,15.48
2022-11-19T12:50:11.365Z,20.35
2022-11-19T12:52:58.477Z,21.13
2022-11-19T12:55:27.706Z,20.88
2022-11-19T12:58:14.745Z,21.45
2022-11-19T13:00:50.718Z,9.00
2022-11-19T13:03:25.962Z,19.40
2022-11-19T13:06:05.068Z,20.02
2022-11-19T13:08:40.297Z,21.77
2022-11-19T13:11:15.753Z,19.55
2022-11-19T13:14:06.065Z,21.48
2022-11-19T13:16:35.087Z,20.42
2022-11-19T13:19:17.969Z,20.42
2022-11-19T13:21:55.203Z,21.42
2022-11-19T13:24:33.958Z,17.40
2022-11-19T13:27:04.439Z,21.02
2022-11-19T13:29:36.827Z,20.77
2022-11-19T13:32:13.685Z,20.42
2022-11-19T13:34:47.852Z,16.45
2022-11-19T13:37:39.150Z,20.55
2022-11-19T13:40:23.251Z,23.27
2022-11-19T13:46:05.794Z,20.20
2022-11-19T13:48:39.595Z,22.20
2022-11-19T13:51:11.687Z,23.77
2022-11-19T13:53:43.934Z,21.17
2022-11-19T13:56:15.238Z,19.90
2022-11-19T13:58:48.742Z,23.25
2022-11-19T14:01:24.615Z,18.95
2022-11-19T14:04:04.056Z,21.70
2022-11-19T14:06:50.056Z,21.83
2022-11-19T14:09:31.893Z,20.45
2022-11-19T14:12:08.106Z,17.02
2022-11-19T14:15:02.328Z,18.17
2022-11-19T14:17:50.292Z,20.23
2022-11-19T14:21:00.070Z,21.55
2022-11-19T14:24:06.374Z,20.23
2022-11-19T14:26:41.643Z,21.10
2022-11-19T14:32:06.222Z,29.17
2022-11-19T14:34:35.331Z,18.02
2022-11-19T14:37:11.904Z,21.63
2022-11-19T14:39:44.762Z,18.63
2022-11-19T14:42:16.797Z,19.48
2022-11-19T14:45:02.776Z,20.58
2022-11-19T14:47:38.851Z,16.55
2022-11-19T14:50:10.604Z,21.30
2022-11-19T14:52:50.890Z,17.45
2022-11-19T14:55:21.510Z,18.27
2022-11-19T14:57:57.045Z,23.60
2022-11-19T15:00:28.709Z,32.95
2022-11-19T15:02:55.886Z,36.00
2022-11-19T15:05:29.901Z,18.48
2022-11-19T15:08:17.879Z,18.02
2022-11-19T15:10:47.410Z,21.08
2022-11-19T15:13:18.623Z,17.15
2022-11-19T15:15:47.956Z,18.13
2022-11-19T15:18:20.428Z,18.08
2022-11-19T15:21:08.598Z,15.65
2022-11-19T15:23:53.848Z,15.77
2022-11-19T15:26:50.137Z,17.40
2022-11-19T15:29:54.183Z,17.67
2022-11-19T15:32:39.311Z,14.98
2022-11-19T15:35:12.918Z,18.20
2022-11-19T15:37:58.966Z,19.70
2022-11-19T15:40:30.991Z,17.90
2022-11-19T15:43:30.441Z,20.60
2022-11-19T15:46:04.533Z,19.85
2022-11-19T15:48:44.658Z,19.55
2022-11-19T15:51:14.700Z,20.42
2022-11-19T15:53:58.387Z,18.23
2022-11-19T15:56:27.833Z,20.42
2022-11-19T15:58:54.484Z,20.95
2022-11-19T16:01:22.112Z,22.15
2022-11-19T16:03:51.630Z,20.40
2022-11-19T16:06:23.560Z,19.77
2022-11-19T16:08:55.625Z,24.20
2022-11-19T16:11:43.724Z,25.00
2022-11-19T16:14:43.716Z,23.70
2022-11-19T16:17:32.335Z,22.00
2022-11-19T16:20:01.817Z,22.00
2022-11-19T16:22:28.882Z,20.60
2022-11-19T16:25:04.842Z,20.45
2022-11-19T16:27:31.728Z,24.63
2022-11-19T16:29:58.644Z,23.30
2022-11-19T16:32:27.249Z,29.02
2022-11-19T16:35:09.043Z,22.27
2022-11-19T16:37:35.962Z,29.10
2022-11-19T16:40:03.120Z,24.58
2022-11-19T16:42:30.903Z,26.60
2022-11-19T16:45:09.728Z,23.88
2022-11-19T16:47:49.933Z,24.42
2022-11-19T16:50:28.834Z,27.00
2022-11-19T16:52:56.088Z,27.52
2022-11-19T16:55:25.259Z,27.35
2022-11-19T16:58:00.054Z,27.23
2022-11-19T17:00:37.237Z,27.55
2022-11-19T17:03:31.675Z,25.05
2022-11-19T17:05:59.010Z,27.45
2022-11-19T17:08:55.260Z,27.20
2022-11-19T17:11:42.851Z,24.83
2022-11-19T17:14:23.325Z,25.92
2022-11-19T17:16:52.404Z,25.55
2022-11-19T17:19:32.714Z,25.85
2022-11-19T17:22:18.314Z,26.50
2022-11-19T17:27:31.497Z,29.23
2022-11-19T17:32:38.709Z,37.38
2022-11-19T17:35:09.279Z,27.17
2022-11-19T17:37:35.724Z,24.60
2022-11-19T17:40:02.366Z,23.73
2022-11-19T17:42:47.629Z,33.90
2022-11-19T17:45:14.110Z,28.13
2022-11-19T17:47:40.600Z,31.48
2022-11-19T17:50:07.606Z,30.50
2022-11-19T17:52:34.069Z,30.05
2022-11-19T17:55:26.715Z,31.45
2022-11-19T17:57:53.213Z,29.27
2022-11-19T18:00:19.742Z,26.20
2022-11-19T18:02:48.682Z,29.35
2022-11-19T18:05:25.790Z,37.97
2022-11-19T18:07:53.335Z,29.15
2022-11-19T18:10:20.283Z,30.48
2022-11-19T18:12:46.720Z,25.05
2022-11-19T18:15:18.136Z,25.52
2022-11-19T18:17:45.198Z,29.58
2022-11-19T18:20:12.308Z,28.42
2022-11-19T18:22:39.672Z,33.00
2022-11-19T18:25:20.071Z,26.80
2022-11-19T18:27:46.583Z,27.42
2022-11-19T18:30:14.433Z,23.13
2022-11-19T18:32:41.299Z,26.48
2022-11-19T18:35:17.991Z,25.83
2022-11-19T18:37:44.909Z,25.58
2022-11-19T18:40:15.579Z,26.10
2022-11-19T18:43:01.562Z,26.92
2022-11-19T18:45:28.069Z,27.00
2022-11-19T18:47:54.894Z,53.15
2022-11-19T18:50:25.456Z,28.83
2022-11-19T18:52:55.984Z,84.32
2022-11-19T18:55:22.505Z,95.72
2022-11-19T18:57:48.956Z,52.75
2022-11-19T19:00:15.543Z,201.70
2022-11-19T19:02:42.102Z,138.05
2022-11-19T19:05:08.799Z,50.95
2022-11-19T19:07:35.923Z,92.90
2022-11-19T19:10:03.269Z,66.60
2022-11-19T19:12:29.755Z,156.98
2022-11-19T19:14:57.009Z,53.60
2022-11-19T19:17:23.523Z,36.95
2022-11-19T19:19:50.015Z,40.13
2022-11-19T19:22:16.579Z,36.85
2022-11-19T19:24:43.124Z,32.28
2022-11-19T19:27:10.005Z,30.98
2022-11-19T19:29:36.869Z,30.75
2022-11-19T19:32:03.690Z,26.48
2022-11-19T19:34:30.622Z,30.30
2022-11-19T19:36:57.090Z,26.92
2022-11-19T19:39:24.055Z,28.83
2022-11-19T19:41:50.888Z,27.95
2022-11-19T19:44:17.417Z,28.13
2022-11-19T19:46:46.763Z,26.55
2022-11-19T19:49:13.227Z,27.38
2022-11-19T19:51:39.739Z,30.88
2022-11-19T19:54:06.337Z,28.63
2022-11-19T19:56:33.523Z,27.48
2022-11-19T19:59:01.089Z,28.35
2022-11-19T20:01:30.514Z,25.85
2022-11-19T20:04:06.030Z,28.17
2022-11-19T20:06:33.263Z,27.73
2022-11-19T20:09:03.202Z,26.25
2022-11-19T20:11:33.653Z,26.60
2022-11-19T20:14:00.155Z,27.95
2022-11-19T20:16:29.198Z,26.25
2022-11-19T20:18:57.779Z,27.52
2022-11-19T20:21:26.955Z,26.58
2022-11-19T20:23:54.134Z,28.35
2022-11-19T20:26:27.898Z,26.05
2022-11-19T20:28:56.343Z,28.58
2022-11-19T20:31:23.032Z,30.48
2022-11-19T20:34:01.599Z,27.52
2022-11-19T20:36:30.224Z,54.67
2022-11-19T20:38:59.600Z,37.10
2022-11-19T20:41:46.282Z,28.63
2022-11-19T20:44:19.992Z,32.95
2022-11-19T20:46:52.926Z,33.20
2022-11-19T20:49:21.771Z,29.85
2022-11-19T20:51:48.807Z,37.25
2022-11-19T20:54:15.690Z,27.98
2022-11-19T20:56:42.567Z,34.60
2022-11-19T20:59:09.764Z,32.92
2022-11-19T21:01:39.022Z,34.88
2022-11-19T21:04:05.649Z,35.45
2022-11-19T21:06:32.200Z,36.00
2022-11-19T21:08:58.828Z,35.08
2022-11-19T21:11:25.458Z,32.05
2022-11-19T21:13:52.346Z,36.83
2022-11-19T21:16:23.979Z,36.15
2022-11-19T21:18:51.280Z,33.00
2022-11-19T21:21:20.596Z,38.30
2022-11-19T21:23:47.154Z,41.50
2022-11-19T21:26:17.039Z,39.33
2022-11-19T21:28:46.721Z,30.20
2022-11-19T21:31:14.949Z,38.80
2022-11-19T21:33:41.525Z,29.65
2022-11-19T21:36:08.889Z,30.15
2022-11-19T21:38:35.878Z,30.75
2022-11-19T21:41:02.460Z,32.58
2022-11-19T21:43:29.424Z,33.40
2022-11-19T21:45:57.295Z,32.85
2022-11-19T21:48:27.363Z,35.10
2022-11-19T21:50:54.270Z,36.72
2022-11-19T21:53:21.341Z,33.95
2022-11-19T21:55:47.862Z,42.72
2022-11-19T21:58:15.407Z,37.40
2022-11-19T22:00:43.803Z,32.28
2022-11-19T22:03:10.527Z,30.20
2022-11-19T22:05:37.077Z,36.25
2022-11-19T22:08:03.670Z,33.72
2022-11-19T22:10:30.690Z,31.83
2022-11-19T22:12:59.975Z,30.42
2022-11-19T22:15:27.099Z,32.83
2022-11-19T22:17:53.896Z,35.53
2022-11-19T22:20:20.567Z,33.22
2022-11-19T22:22:47.074Z,33.17
2022-11-19T22:25:14.657Z,30.27
2022-11-19T22:27:41.830Z,35.08
2022-11-19T22:30:10.125Z,34.53
2022-11-19T22:32:36.952Z,32.55
2022-11-19T22:35:04.130Z,31.88
2022-11-19T22:37:30.673Z,31.33
2022-11-19T22:39:57.221Z,30.00
2022-11-19T22:42:23.711Z,34.58
2022-11-19T22:44:51.110Z,30.23
2022-11-19T22:47:17.544Z,35.53
2022-11-19T22:49:44.244Z,32.00
2022-11-19T22:52:10.775Z,33.72
2022-11-19T22:54:41.344Z,33.38
2022-11-19T22:57:08.500Z,31.33
2022-11-19T22:59:35.029Z,38.95
2022-11-19T23:02:01.636Z,33.95
2022-11-19T23:04:28.992Z,32.97
2022-11-19T23:06:55.468Z,39.88
2022-11-19T23:09:22.255Z,40.85
2022-11-19T23:12:07.356Z,45.55
2022-11-19T23:14:34.990Z,43.47
2022-11-19T23:17:01.461Z,42.15
2022-11-19T23:19:27.886Z,42.20
2022-11-19T23:21:54.357Z,37.10
2022-11-19T23:24:20.786Z,41.65
2022-11-19T23:26:47.265Z,39.47
2022-11-19T23:29:13.706Z,39.28
2022-11-19T23:31:40.534Z,45.13
2022-11-19T23:34:07.467Z,41.88
2022-11-19T23:36:36.701Z,43.65
2022-11-19T23:39:05.329Z,46.60
2022-11-19T23:41:33.885Z,40.20
2022-11-19T23:44:01.121Z,38.05
2022-11-19T23:46:33.628Z,37.35
2022-11-19T23:49:01.180Z,34.97
2022-11-19T23:51:30.302Z,35.78
2022-11-19T23:53:57.526Z,37.53
2022-11-19T23:56:25.381Z,36.15
2022-11-19T23:58:52.527Z,42.95
